Time;durP1;ratioP1;P1;durP2;ratioP2;P2;SDS_P1;SDS_P2;PMS_P1;PMS_P2;Temp;Humidity;BMP_temperature;BMP_pressure;BME280_temperature;BME280_humidity;BME280_pressure;Samples;Min_cycle;Max_cycle;Signal;HPM_P1;HPM_P2
2022/11/18 00:01:33;;;;;;;;;;;;;;;7.27;100.00;94722.06;5062673;28;19954;-75
2022/11/18 00:03:59;;;;;;;;;;;;;;;7.31;100.00;94733.59;5062059;28;19952;-75
2022/11/18 00:06:26;;;;;;;;;;;;;;;7.34;100.00;94727.88;5064791;28;19958;-75
2022/11/18 00:08:52;;;;;;;;;;;;;;;7.38;100.00;94739.44;5046039;28;19970;-74
2022/11/18 00:14:19;;;;;;;;;;;;;;;7.42;100.00;94739.75;5061398;28;19956;-76
2022/11/18 00:16:47;;;;;;;;;;;;;;;7.42;100.00;94740.53;5065325;28;19957;-74
2022/11/18 00:19:13;;;;;;;;;;;;;;;7.41;100.00;94746.78;5066539;28;19954;-74
2022/11/18 00:21:39;;;;;;;;;;;;;;;7.39;100.00;94742.81;5063865;28;19956;-74
2022/11/18 00:24:05;;;;;;;;;;;;;;;7.41;100.00;94748.59;5064744;28;19996;-74
2022/11/18 00:26:31;;;;;;;;;;;;;;;7.40;100.00;94749.63;5060953;28;20029;-75
2022/11/18 00:28:57;;;;;;;;;;;;;;;7.40;100.00;94747.00;5061493;28;20495;-74
2022/11/18 00:31:22;;;;;;;;;;;;;;;7.42;100.00;94753.56;5063870;28;20042;-74
2022/11/18 00:33:48;;;;;;;;;;;;;;;7.44;100.00;94755.94;5065345;28;20041;-74
2022/11/18 00:36:14;;;;;;;;;;;;;;;7.43;100.00;94754.34;5066332;28;20427;-74
2022/11/18 00:38:40;;;;;;;;;;;;;;;7.41;100.00;94754.59;5064265;28;19957;-74
2022/11/18 00:41:08;;;;;;;;;;;;;;;7.39;100.00;94751.44;5042963;28;19957;-74
2022/11/18 00:43:34;;;;;;;;;;;;;;;7.31;100.00;94746.63;5057099;28;19951;-74
2022/11/18 00:46:00;;;;;;;;;;;;;;;7.29;100.00;94749.47;5066278;28;19947;-74
2022/11/18 00:48:26;;;;;;;;;;;;;;;7.30;100.00;94739.81;5062455;28;19950;-74
2022/11/18 00:50:53;;;;;;;;;;;;;;;7.30;100.00;94745.81;5068212;28;19948;-74
2022/11/18 00:53:21;;;;;;;;;;;;;;;7.31;100.00;94746.63;5064111;28;19960;-74
2022/11/18 00:55:47;;;;;;;;;;;;;;;7.31;100.00;94741.41;5057462;28;19975;-74
2022/11/18 00:58:13;;;;;;;;;;;;;;;7.32;100.00;94735.94;5063737;28;19952;-74
2022/11/18 01:00:40;;;;;;;;;;;;;;;7.30;100.00;94737.22;5066056;28;19955;-74
2022/11/18 01:03:07;;;;;;;;;;;;;;;7.28;100.00;94745.28;5064488;28;19962;-74
2022/11/18 01:05:32;;;;;;;;;;;;;;;7.31;100.00;94749.25;5060768;28;20473;-74
2022/11/18 01:07:58;;;;;;;;;;;;;;;7.32;100.00;94742.97;5066634;28;20047;-75
2022/11/18 01:10:24;;;;;;;;;;;;;;;7.35;100.00;94739.09;5061059;28;19969;-75
2022/11/18 01:15:41;;;;;;;;;;;;;;;7.36;100.00;94732.88;5046055;28;20075;-75
2022/11/18 01:18:08;;;;;;;;;;;;;;;7.37;100.00;94756.13;5058623;28;19948;-75
2022/11/18 01:20:34;;;;;;;;;;;;;;;7.38;100.00;94749.06;5066589;28;19951;-74
2022/11/18 01:23:00;;;;;;;;;;;;;;;7.39;100.00;94750.63;5064695;28;20322;-74
2022/11/18 01:25:26;;;;;;;;;;;;;;;7.38;100.00;94752.47;5065754;28;19956;-75
2022/11/18 01:27:51;;;;;;;;;;;;;;;7.37;100.00;94763.94;5060208;28;19946;-75
2022/11/18 01:30:17;;;;;;;;;;;;;;;7.37;100.00;94760.50;5063238;28;20405;-74
2022/11/18 01:32:43;;;;;;;;;;;;;;;7.35;100.00;94771.22;5068727;28;19955;-74
2022/11/18 01:35:10;;;;;;;;;;;;;;;7.35;100.00;94775.59;5060022;28;19963;-74
2022/11/18 01:37:36;;;;;;;;;;;;;;;7.35;100.00;94771.22;5061754;28;19960;-74
2022/11/18 01:40:02;;;;;;;;;;;;;;;7.34;100.00;94766.22;5067026;28;19951;-74
2022/11/18 01:42:28;;;;;;;;;;;;;;;7.29;100.00;94766.94;5063893;28;19959;-74
2022/11/18 01:44:57;;;;;;;;;;;;;;;7.29;100.00;94779.97;5056851;28;20325;-74
2022/11/18 01:47:24;;;;;;;;;;;;;;;7.30;100.00;94773.72;5061012;28;19949;-74
2022/11/18 01:49:50;;;;;;;;;;;;;;;7.32;100.00;94776.88;5066376;28;19958;-74
2022/11/18 01:52:16;;;;;;;;;;;;;;;7.33;100.00;94775.88;5066057;28;19948;-74
2022/11/18 01:54:45;;;;;;;;;;;;;;;7.35;100.00;94775.59;5064356;28;19953;-74
2022/11/18 01:57:13;;;;;;;;;;;;;;;7.32;100.00;94776.88;5062925;28;20404;-74
2022/11/18 01:59:41;;;;;;;;;;;;;;;7.26;100.00;94770.00;5059474;28;19948;-75
2022/11/18 02:02:11;;;;;;;;;;;;;;;7.21;100.00;94775.94;5053190;28;19951;-74
2022/11/18 02:04:42;;;;;;;;;;;;;;;7.16;100.00;94778.47;5062932;28;19950;-74
2022/11/18 02:07:08;;;;;;;;;;;;;;;7.15;100.00;94779.50;5063071;28;19949;-74
2022/11/18 02:09:35;;;;;;;;;;;;;;;7.16;100.00;94780.28;5062562;28;19961;-74
2022/11/18 02:12:01;;;;;;;;;;;;;;;7.19;100.00;94782.44;5063852;28;19947;-75
2022/11/18 02:14:39;;;;;;;;;;;;;;;7.22;100.00;94781.94;5045756;28;19957;-74
2022/11/18 02:17:23;;;;;;;;;;;;;;;7.23;100.00;94778.31;5068954;28;19968;-75
2022/11/18 02:20:09;;;;;;;;;;;;;;;7.25;100.00;94774.44;5062488;28;19956;-74
2022/11/18 02:22:43;;;;;;;;;;;;;;;7.28;100.00;94781.00;5061537;28;19942;-74
2022/11/18 02:25:27;;;;;;;;;;;;;;;7.27;100.00;94777.59;5064232;28;19941;-74
2022/11/18 02:27:56;;;;;;;;;;;;;;;7.28;100.00;94776.56;5064141;28;19952;-75
2022/11/18 02:30:22;;;;;;;;;;;;;;;7.30;100.00;94771.13;5069978;28;20044;-74
2022/11/18 02:33:01;;;;;;;;;;;;;;;7.31;100.00;94776.09;5070988;28;20343;-76
2022/11/18 02:35:42;;;;;;;;;;;;;;;7.31;100.00;94775.31;5065854;28;19968;-75
2022/11/18 02:38:12;;;;;;;;;;;;;;;7.33;100.00;94775.88;5067130;28;20430;-74
2022/11/18 02:40:43;;;;;;;;;;;;;;;7.32;100.00;94776.88;5064824;28;20443;-74
2022/11/18 02:43:09;;;;;;;;;;;;;;;7.32;100.00;94775.06;5064826;28;20353;-74
2022/11/18 02:45:37;;;;;;;;;;;;;;;7.32;100.00;94780.28;5067263;28;19952;-75
2022/11/18 02:48:06;;;;;;;;;;;;;;;7.32;100.00;94777.66;5065476;28;19943;-74
2022/11/18 02:50:33;;;;;;;;;;;;;;;7.33;100.00;94781.09;5064348;28;19945;-75
2022/11/18 02:53:02;;;;;;;;;;;;;;;7.33;100.00;94783.69;5066890;28;19953;-74
2022/11/18 02:55:29;;;;;;;;;;;;;;;7.32;100.00;94789.91;5065606;28;19962;-74
2022/11/18 02:57:57;;;;;;;;;;;;;;;7.27;100.00;94793.25;5062888;28;19953;-74
2022/11/18 03:00:23;;;;;;;;;;;;;;;7.20;100.00;94790.03;5066683;28;19958;-74
2022/11/18 03:02:49;;;;;;;;;;;;;;;7.18;100.00;94797.28;5066751;28;20379;-74
2022/11/18 03:05:17;;;;;;;;;;;;;;;7.15;100.00;94804.78;5051889;28;19958;-74
2022/11/18 03:07:45;;;;;;;;;;;;;;;7.15;100.00;94808.16;5066815;28;19961;-75
2022/11/18 03:10:11;;;;;;;;;;;;;;;7.14;100.00;94811.00;5061869;28;19975;-74
2022/11/18 03:12:37;;;;;;;;;;;;;;;7.09;100.00;94815.09;5068363;28;19966;-74
2022/11/18 03:15:26;;;;;;;;;;;;;;;7.06;100.00;94825.22;5071067;28;19948;-74
2022/11/18 03:18:04;;;;;;;;;;;;;;;7.08;100.00;94823.19;5056374;28;19947;-74
2022/11/18 03:20:39;;;;;;;;;;;;;;;7.13;100.00;94836.28;5063729;28;19962;-74
2022/11/18 03:23:08;;;;;;;;;;;;;;;7.15;100.00;94836.06;5064494;28;20430;-74
2022/11/18 03:25:43;;;;;;;;;;;;;;;7.17;100.00;94826.97;5062189;28;19960;-75
2022/11/18 03:28:13;;;;;;;;;;;;;;;7.18;100.00;94833.78;5065373;28;19949;-75
2022/11/18 03:30:44;;;;;;;;;;;;;;;7.21;100.00;94840.34;5065095;28;19942;-75
2022/11/18 03:33:13;;;;;;;;;;;;;;;7.21;100.00;94846.31;5070117;28;19946;-75
2022/11/18 03:35:41;;;;;;;;;;;;;;;7.23;100.00;94840.88;5064372;28;20419;-75
2022/11/18 03:38:10;;;;;;;;;;;;;;;7.24;100.00;94853.66;5065412;28;19962;-75
2022/11/18 03:40:38;;;;;;;;;;;;;;;7.26;100.00;94853.44;5045111;28;19950;-74
2022/11/18 03:43:07;;;;;;;;;;;;;;;7.25;100.00;94857.09;5063453;28;20322;-75
2022/11/18 03:45:35;;;;;;;;;;;;;;;7.26;100.00;94862.03;5066121;28;19945;-75
2022/11/18 03:48:08;;;;;;;;;;;;;;;7.26;100.00;94869.88;5064842;28;19952;-75
2022/11/18 03:50:40;;;;;;;;;;;;;;;7.25;100.00;94872.72;5064389;28;19951;-74
2022/11/18 03:53:07;;;;;;;;;;;;;;;7.24;100.00;94884.16;5067025;28;19963;-74
2022/11/18 03:55:40;;;;;;;;;;;;;;;7.24;100.00;94878.94;5065338;28;19966;-74
2022/11/18 03:58:17;;;;;;;;;;;;;;;7.23;100.00;94880.00;5062030;28;20687;-74
2022/11/18 04:00:44;;;;;;;;;;;;;;;7.24;100.00;94878.94;5065683;28;19951;-74
2022/11/18 04:03:11;;;;;;;;;;;;;;;7.22;100.00;94884.41;5067944;28;20435;-74
2022/11/18 04:05:39;;;;;;;;;;;;;;;7.23;100.00;94890.41;5060788;28;20315;-74
2022/11/18 04:08:16;;;;;;;;;;;;;;;7.23;100.00;94893.03;5062878;28;19953;-74
2022/11/18 04:10:51;;;;;;;;;;;;;;;7.21;100.00;94893.25;5066894;28;19952;-74
2022/11/18 04:13:21;;;;;;;;;;;;;;;7.23;100.00;94895.63;5066075;28;19952;-75
2022/11/18 04:15:49;;;;;;;;;;;;;;;7.23;100.00;94890.41;5043180;28;20728;-74
2022/11/18 04:18:15;;;;;;;;;;;;;;;7.23;100.00;94893.81;5064032;28;19962;-74
2022/11/18 04:20:41;;;;;;;;;;;;;;;7.24;100.00;94899.81;5062543;28;19983;-75
2022/11/18 04:23:07;;;;;;;;;;;;;;;7.24;100.00;94900.59;5067842;28;20418;-74
2022/11/18 04:25:33;;;;;;;;;;;;;;;7.24;100.00;94902.41;5066777;28;19948;-74
2022/11/18 04:27:59;;;;;;;;;;;;;;;7.23;100.00;94908.66;5058768;28;19970;-74
2022/11/18 04:30:25;;;;;;;;;;;;;;;7.22;100.00;94907.84;5061792;28;20424;-74
2022/11/18 04:32:51;;;;;;;;;;;;;;;7.21;100.00;94910.72;5064036;28;19960;-74
2022/11/18 04:35:17;;;;;;;;;;;;;;;7.19;100.00;94916.16;5060263;28;20003;-74
2022/11/18 04:37:42;;;;;;;;;;;;;;;7.19;100.00;94916.16;5060146;28;20007;-74
2022/11/18 04:40:09;;;;;;;;;;;;;;;7.20;100.00;94927.38;5067962;28;19956;-74
2022/11/18 04:42:35;;;;;;;;;;;;;;;7.19;100.00;94923.97;5046962;28;19947;-75
2022/11/18 04:45:01;;;;;;;;;;;;;;;7.18;100.00;94925.03;5060108;28;19950;-74
2022/11/18 04:47:27;;;;;;;;;;;;;;;7.17;100.00;94922.63;5059434;28;19944;-74
2022/11/18 04:49:53;;;;;;;;;;;;;;;7.15;100.00;94917.66;5065429;28;20316;-74
2022/11/18 04:52:19;;;;;;;;;;;;;;;7.15;100.00;94922.88;5062074;28;20015;-75
2022/11/18 04:54:45;;;;;;;;;;;;;;;7.14;100.00;94917.88;5062594;28;19956;-74
2022/11/18 04:57:11;;;;;;;;;;;;;;;7.15;100.00;94924.69;5065308;28;19966;-74
2022/11/18 04:59:37;;;;;;;;;;;;;;;7.14;100.00;94916.09;5068119;28;20442;-74
2022/11/18 05:02:03;;;;;;;;;;;;;;;7.15;100.00;94924.69;5064853;28;19956;-75
2022/11/18 05:04:31;;;;;;;;;;;;;;;7.14;100.00;94926.50;5063204;28;20337;-75
2022/11/18 05:06:57;;;;;;;;;;;;;;;7.13;100.00;94921.53;5059608;28;20311;-75
2022/11/18 05:09:23;;;;;;;;;;;;;;;7.11;100.00;94916.53;5062764;28;20348;-75
2022/11/18 05:14:33;;;;;;;;;;;;;;;7.06;100.00;94929.47;5052374;28;19962;-75
2022/11/18 05:17:00;;;;;;;;;;;;;;;7.05;100.00;94938.31;5062336;28;20007;-75
2022/11/18 05:19:26;;;;;;;;;;;;;;;7.03;100.00;94946.34;5062412;28;19962;-75
2022/11/18 05:21:52;;;;;;;;;;;;;;;7.04;100.00;94945.34;5069392;28;19956;-75
2022/11/18 05:24:19;;;;;;;;;;;;;;;7.02;100.00;94951.81;5066971;28;19959;-75
2022/11/18 05:26:45;;;;;;;;;;;;;;;7.01;100.00;94955.44;5066190;28;19952;-75
2022/11/18 05:29:11;;;;;;;;;;;;;;;7.00;100.00;94956.47;5065090;28;20319;-75
2022/11/18 05:31:37;;;;;;;;;;;;;;;6.98;100.00;94954.09;5064596;28;19950;-74
2022/11/18 05:34:03;;;;;;;;;;;;;;;6.99;100.00;94960.91;5060864;28;19958;-75
2022/11/18 05:36:29;;;;;;;;;;;;;;;6.97;100.00;94955.13;5063139;28;19967;-75
2022/11/18 05:38:58;;;;;;;;;;;;;;;6.97;100.00;94970.75;5068297;28;19999;-75
2022/11/18 05:44:09;;;;;;;;;;;;;;;6.96;100.00;94973.59;5063928;28;19964;-75
2022/11/18 05:46:34;;;;;;;;;;;;;;;6.94;100.00;94976.41;5064534;28;20320;-75
2022/11/18 05:49:00;;;;;;;;;;;;;;;6.94;100.00;94976.41;5065554;28;20045;-76
2022/11/18 05:51:26;;;;;;;;;;;;;;;6.93;100.00;94981.84;5057263;28;19962;-75
2022/11/18 05:53:54;;;;;;;;;;;;;;;6.90;100.00;94981.28;5067254;28;20402;-75
2022/11/18 05:56:48;;;;;;;;;;;;;;;6.89;100.00;94987.53;5068580;28;19966;-75
2022/11/18 05:59:14;;;;;;;;;;;;;;;6.88;100.00;94991.16;5043843;28;19955;-75
2022/11/18 06:01:50;;;;;;;;;;;;;;;6.88;100.00;94990.38;5050109;28;20327;-75
2022/11/18 06:04:16;;;;;;;;;;;;;;;6.85;100.00;94985.63;5067150;28;19959;-75
2022/11/18 06:06:44;;;;;;;;;;;;;;;6.84;100.00;94987.44;5064978;28;19949;-75
2022/11/18 06:09:11;;;;;;;;;;;;;;;6.83;100.00;94998.88;5064458;28;19969;-75
2022/11/18 06:11:42;;;;;;;;;;;;;;;6.81;100.00;94990.50;5070162;28;19961;-75
2022/11/18 06:14:14;;;;;;;;;;;;;;;6.83;100.00;95005.91;5067139;28;19945;-75
2022/11/18 06:16:43;;;;;;;;;;;;;;;6.82;100.00;94993.91;5061959;28;19963;-75
2022/11/18 06:19:09;;;;;;;;;;;;;;;6.82;100.00;95001.72;5065523;28;19950;-75
2022/11/18 06:21:35;;;;;;;;;;;;;;;6.81;100.00;95008.75;5070504;28;20426;-74
2022/11/18 06:24:01;;;;;;;;;;;;;;;6.80;100.00;95009.75;5070868;28;19962;-75
2022/11/18 06:26:27;;;;;;;;;;;;;;;6.79;100.00;95012.59;5061327;28;19950;-75
2022/11/18 06:28:54;;;;;;;;;;;;;;;6.77;100.00;95015.44;5065963;28;19961;-75
2022/11/18 06:31:20;;;;;;;;;;;;;;;6.75;100.00;95017.47;5064835;28;19974;-75
2022/11/18 06:33:46;;;;;;;;;;;;;;;6.74;100.00;95022.91;5053844;28;19953;-75
2022/11/18 06:36:12;;;;;;;;;;;;;;;6.73;100.00;95027.31;5059819;28;19967;-74
2022/11/18 06:38:37;;;;;;;;;;;;;;;6.73;100.00;95032.53;5069532;28;19995;-75
2022/11/18 06:41:03;;;;;;;;;;;;;;;6.71;100.00;95024.94;5069132;28;19956;-75
2022/11/18 06:43:40;;;;;;;;;;;;;;;6.71;100.00;95039.78;5066886;28;19952;-75
2022/11/18 06:48:55;;;;;;;;;;;;;;;6.70;100.00;95035.59;5061267;28;19956;-75
2022/11/18 06:51:21;;;;;;;;;;;;;;;6.71;100.00;95040.56;5070149;28;19956;-75
2022/11/18 06:53:47;;;;;;;;;;;;;;;6.70;100.00;95051.25;5065192;28;19957;-75
2022/11/18 06:56:13;;;;;;;;;;;;;;;6.70;100.00;95053.84;5061979;28;20455;-75
2022/11/18 06:58:39;;;;;;;;;;;;;;;6.71;100.00;95052.81;5071985;28;19951;-75
2022/11/18 07:01:20;;;;;;;;;;;;;;;6.68;100.00;95054.06;5061676;28;19946;-74
2022/11/18 07:03:46;;;;;;;;;;;;;;;6.70;100.00;95061.66;5063552;28;19957;-74
2022/11/18 07:06:14;;;;;;;;;;;;;;;6.69;100.00;95063.44;5064107;28;19956;-75
2022/11/18 07:08:41;;;;;;;;;;;;;;;6.70;100.00;95072.88;5068425;28;20035;-76
2022/11/18 07:11:08;;;;;;;;;;;;;;;6.70;100.00;95066.88;5069072;28;20423;-75
2022/11/18 07:13:34;;;;;;;;;;;;;;;6.71;100.00;95069.22;5064317;28;19964;-75
2022/11/18 07:16:01;;;;;;;;;;;;;;;6.71;100.00;95063.22;5060343;28;19954;-75
2022/11/18 07:18:28;;;;;;;;;;;;;;;6.71;100.00;95074.44;5072280;28;19954;-75
2022/11/18 07:20:54;;;;;;;;;;;;;;;6.71;100.00;95066.63;5066077;28;19951;-76
2022/11/18 07:23:20;;;;;;;;;;;;;;;6.72;100.00;95075.25;5062827;28;19956;-75
2022/11/18 07:25:46;;;;;;;;;;;;;;;6.74;100.00;95081.03;5066438;28;20005;-75
2022/11/18 07:28:12;;;;;;;;;;;;;;;6.75;100.00;95074.78;5059313;28;19959;-74
2022/11/18 07:30:38;;;;;;;;;;;;;;;6.77;100.00;95077.16;5049239;28;20024;-74
2022/11/18 07:33:03;;;;;;;;;;;;;;;6.76;100.00;95086.00;5067353;28;20411;-75
2022/11/18 07:35:29;;;;;;;;;;;;;;;6.76;100.00;95089.41;5062068;28;19994;-75
2022/11/18 07:37:55;;;;;;;;;;;;;;;6.78;100.00;95096.97;5059548;28;20016;-75
2022/11/18 07:40:21;;;;;;;;;;;;;;;6.79;100.00;95095.97;5068057;28;20002;-75
2022/11/18 07:42:47;;;;;;;;;;;;;;;6.79;100.00;95107.19;5064858;28;20366;-74
2022/11/18 07:45:13;;;;;;;;;;;;;;;6.80;100.00;95113.19;5063107;28;19955;-75
2022/11/18 07:47:39;;;;;;;;;;;;;;;6.80;100.00;95115.78;5060018;28;19954;-75
2022/11/18 07:50:05;;;;;;;;;;;;;;;6.82;100.00;95124.16;5064008;28;20416;-75
2022/11/18 07:52:31;;;;;;;;;;;;;;;6.83;100.00;95131.78;5066414;28;19958;-75
2022/11/18 07:54:57;;;;;;;;;;;;;;;6.86;100.00;95125.31;5067571;28;20335;-75
2022/11/18 07:57:22;;;;;;;;;;;;;;;6.89;100.00;95138.69;5067024;28;19972;-74
2022/11/18 07:59:48;;;;;;;;;;;;;;;6.92;100.00;95132.22;5064249;28;19957;-75
2022/11/18 08:02:14;;;;;;;;;;;;;;;6.94;100.00;95135.38;5064915;28;19949;-75
2022/11/18 08:04:40;;;;;;;;;;;;;;;6.96;100.00;95137.78;5065294;28;20362;-75
2022/11/18 08:07:08;;;;;;;;;;;;;;;6.96;100.00;95140.38;5043514;28;20018;-75
2022/11/18 08:09:34;;;;;;;;;;;;;;;6.96;100.00;95140.38;5060744;28;19978;-74
2022/11/18 08:12:00;;;;;;;;;;;;;;;6.98;100.00;95143.56;5063712;28;19957;-75
2022/11/18 08:14:27;;;;;;;;;;;;;;;7.00;100.00;95144.13;5066731;28;20361;-75
2022/11/18 08:16:53;;;;;;;;;;;;;;;7.01;100.00;95149.09;5066908;28;19966;-74
2022/11/18 08:19:19;;;;;;;;;;;;;;;7.02;100.00;95149.91;5059770;28;19962;-74
2022/11/18 08:21:45;;;;;;;;;;;;;;;7.02;100.00;95148.09;5065284;28;19956;-75
2022/11/18 08:24:11;;;;;;;;;;;;;;;7.02;100.00;95152.50;5050694;28;20048;-75
2022/11/18 08:26:37;;;;;;;;;;;;;;;7.01;100.00;95154.31;5062666;28;20425;-75
2022/11/18 08:29:03;;;;;;;;;;;;;;;7.00;100.00;95152.72;5060297;28;19952;-75
2022/11/18 08:31:29;;;;;;;;;;;;;;;6.99;100.00;95156.38;5061366;28;19974;-75
2022/11/18 08:33:59;;;;;;;;;;;;;;;6.98;100.00;95161.81;5070887;28;19946;-75
2022/11/18 08:36:27;;;;;;;;;;;;;;;7.01;100.00;95159.50;5054026;28;19966;-75
2022/11/18 08:38:56;;;;;;;;;;;;;;;7.08;100.00;95165.44;5063269;28;20325;-75
2022/11/18 08:41:32;;;;;;;;;;;;;;;7.07;100.00;95163.03;5063070;28;19962;-75
2022/11/18 08:43:59;;;;;;;;;;;;;;;7.06;100.00;95166.69;5063050;28;19953;-75
2022/11/18 08:46:25;;;;;;;;;;;;;;;7.07;100.00;95166.44;5062309;28;19954;-75
2022/11/18 08:48:51;;;;;;;;;;;;;;;7.12;100.00;95170.97;5062775;28;20461;-75
2022/11/18 08:51:17;;;;;;;;;;;;;;;7.18;100.00;95174.47;5068542;28;19963;-75
2022/11/18 08:53:43;;;;;;;;;;;;;;;7.24;100.00;95181.38;5062056;28;20284;-75
2022/11/18 08:56:13;;;;;;;;;;;;;;;7.27;100.00;95175.75;5058155;28;19962;-74
2022/11/18 08:58:40;;;;;;;;;;;;;;;7.26;100.00;95171.53;5060130;28;20321;-75
2022/11/18 09:01:06;;;;;;;;;;;;;;;7.27;100.00;95176.53;5068881;28;19991;-75
2022/11/18 09:03:32;;;;;;;;;;;;;;;7.30;100.00;95181.28;5064609;28;19963;-75
2022/11/18 09:06:08;;;;;;;;;;;;;;;7.32;100.00;95181.84;5063937;28;19957;-75
2022/11/18 09:08:34;;;;;;;;;;;;;;;7.30;100.00;95186.47;5058924;28;20362;-75
2022/11/18 09:11:04;;;;;;;;;;;;;;;7.28;100.00;95185.91;5062995;28;20314;-75
2022/11/18 09:13:29;;;;;;;;;;;;;;;7.30;100.00;95198.72;5047086;28;20029;-74
2022/11/18 09:15:59;;;;;;;;;;;;;;;7.31;100.00;95187.31;5062061;28;19949;-75
2022/11/18 09:18:25;;;;;;;;;;;;;;;7.27;100.00;95194.78;5063460;28;20411;-74
2022/11/18 09:21:02;;;;;;;;;;;;;;;7.28;100.00;95198.97;5062867;28;19960;-75
2022/11/18 09:23:27;;;;;;;;;;;;;;;7.34;100.00;95194.66;5060087;28;19946;-74
2022/11/18 09:26:07;;;;;;;;;;;;;;;7.41;100.00;95203.16;5063251;28;20044;-75
2022/11/18 09:28:33;;;;;;;;;;;;;;;7.48;100.00;95195.22;5062428;28;20409;-75
2022/11/18 09:31:03;;;;;;;;;;;;;;;7.53;100.00;95200.53;5064305;28;19950;-75
2022/11/18 09:33:29;;;;;;;;;;;;;;;7.56;100.00;95196.66;5073344;28;19947;-74
2022/11/18 09:35:55;;;;;;;;;;;;;;;7.57;100.00;95203.47;5070855;28;19963;-76
2022/11/18 09:38:21;;;;;;;;;;;;;;;7.59;100.00;95201.44;5030667;28;19979;-75
2022/11/18 09:40:59;;;;;;;;;;;;;;;7.60;100.00;95210.84;5062486;28;20371;-75
2022/11/18 09:43:45;;;;;;;;;;;;;;;7.65;100.00;95216.97;5069325;28;20374;-75
2022/11/18 09:46:25;;;;;;;;;;;;;;;7.65;100.00;95210.97;5020128;28;19958;-75
2022/11/18 09:51:38;;;;;;;;;;;;;;;7.71;100.00;95221.25;5066490;28;19951;-75
2022/11/18 09:54:07;;;;;;;;;;;;;;;7.75;100.00;95219.00;5060739;28;19956;-75
2022/11/18 09:56:33;;;;;;;;;;;;;;;7.80;100.00;95221.69;5060261;28;19948;-75
2022/11/18 09:58:59;;;;;;;;;;;;;;;7.85;100.00;95221.81;5064445;28;19960;-75
2022/11/18 10:01:25;;;;;;;;;;;;;;;7.88;100.00;95225.78;5066214;28;19957;-75
2022/11/18 10:03:51;;;;;;;;;;;;;;;7.90;100.00;95227.13;5068312;28;19952;-74
2022/11/18 10:06:21;;;;;;;;;;;;;;;7.94;100.00;95227.47;5065321;28;19951;-75
2022/11/18 10:09:04;;;;;;;;;;;;;;;7.98;100.00;95227.78;5066930;28;19967;-75
2022/11/18 10:11:34;;;;;;;;;;;;;;;8.09;100.00;95226.97;5069510;28;19955;-74
2022/11/18 10:14:32;;;;;;;;;;;;;;;8.23;100.00;95222.25;5065843;28;19948;-75
2022/11/18 10:17:19;;;;;;;;;;;;;;;8.45;100.00;95218.00;5012307;28;19971;-75
2022/11/18 10:19:51;;;;;;;;;;;;;;;8.64;100.00;95220.41;5061193;28;20012;-75
2022/11/18 10:22:23;;;;;;;;;;;;;;;8.73;100.00;95219.81;5069258;28;19955;-75
2022/11/18 10:24:53;;;;;;;;;;;;;;;8.73;100.00;95225.03;5050313;28;19949;-74
2022/11/18 10:27:19;;;;;;;;;;;;;;;8.73;100.00;95227.66;5064790;28;20304;-76
2022/11/18 10:29:51;;;;;;;;;;;;;;;8.74;100.00;95221.38;5066426;28;19951;-75
2022/11/18 10:32:17;;;;;;;;;;;;;;;8.71;100.00;95226.28;5068218;28;19958;-75
2022/11/18 10:34:46;;;;;;;;;;;;;;;8.70;100.00;95232.53;5072045;28;19949;-75
2022/11/18 10:37:22;;;;;;;;;;;;;;;8.68;100.00;95237.22;5061503;28;19971;-75
2022/11/18 10:39:52;;;;;;;;;;;;;;;8.65;100.00;95248.94;5061055;28;19953;-75
2022/11/18 10:42:38;;;;;;;;;;;;;;;8.62;100.00;95241.56;5047168;28;19979;-75
2022/11/18 10:45:19;;;;;;;;;;;;;;;8.63;100.00;95243.16;5060585;28;19950;-75
2022/11/18 10:48:04;;;;;;;;;;;;;;;8.61;100.00;95242.59;5063556;28;19958;-75
2022/11/18 10:50:30;;;;;;;;;;;;;;;8.58;100.00;95240.44;5069286;28;19951;-75
2022/11/18 10:52:56;;;;;;;;;;;;;;;8.53;100.00;95240.34;5064697;28;19986;-75
2022/11/18 10:55:23;;;;;;;;;;;;;;;8.49;100.00;95244.47;5050320;28;19949;-74
2022/11/18 10:57:51;;;;;;;;;;;;;;;8.49;100.00;95244.47;5058458;28;19969;-74
2022/11/18 11:00:37;;;;;;;;;;;;;;;8.49;100.00;95253.09;5067736;28;19972;-75
2022/11/18 11:03:21;;;;;;;;;;;;;;;8.54;100.00;95255.78;5057854;28;19961;-75
2022/11/18 11:05:47;;;;;;;;;;;;;;;8.71;100.00;95258.44;5069216;28;19953;-75
2022/11/18 11:08:20;;;;;;;;;;;;;;;8.89;100.00;95249.59;5066078;28;20406;-75
2022/11/18 11:10:57;;;;;;;;;;;;;;;9.15;100.00;95231.69;5048526;28;19949;-74
2022/11/18 11:13:26;;;;;;;;;;;;;;;9.34;100.00;95225.19;5063254;28;19954;-75
2022/11/18 11:15:54;;;;;;;;;;;;;;;9.38;100.00;95238.56;5065121;28;19971;-74
2022/11/18 11:18:40;;;;;;;;;;;;;;;9.30;100.00;95237.16;5067013;28;19975;-74
2022/11/18 11:21:19;;;;;;;;;;;;;;;9.21;96.90;95222.09;5067192;28;19946;-74
2022/11/18 11:23:45;;;;;;;;;;;;;;;9.05;98.34;95240.19;5067928;28;19959;-74
2022/11/18 11:26:29;;;;;;;;;;;;;;;8.96;98.02;95232.97;5063937;28;19955;-74
2022/11/18 11:29:08;;;;;;;;;;;;;;;8.88;99.50;95249.81;5061149;28;20312;-74
2022/11/18 11:31:34;;;;;;;;;;;;;;;8.84;99.06;95249.53;5055463;28;20429;-74
2022/11/18 11:34:18;;;;;;;;;;;;;;;8.81;98.69;95246.56;5064746;28;20000;-74
2022/11/18 11:36:50;;;;;;;;;;;;;;;8.77;99.81;95259.31;5043004;28;19956;-74
2022/11/18 11:39:23;;;;;;;;;;;;;;;8.74;100.00;95273.66;5064740;28;19957;-74
2022/11/18 11:41:51;;;;;;;;;;;;;;;8.68;97.82;95251.06;5066714;28;19959;-74
2022/11/18 11:44:17;;;;;;;;;;;;;;;8.75;100.00;95266.59;5047171;28;19947;-74
2022/11/18 11:49:47;;;;;;;;;;;;;;;9.21;100.00;95249.03;5056189;28;19954;-74
2022/11/18 11:52:22;;;;;;;;;;;;;;;9.46;94.49;95224.28;5068705;28;19949;-74
2022/11/18 11:54:53;;;;;;;;;;;;;;;9.70;98.06;95248.44;5053533;28;19947;-74
2022/11/18 11:57:19;;;;;;;;;;;;;;;9.88;98.21;95255.22;5058831;28;19965;-74
2022/11/18 11:59:51;;;;;;;;;;;;;;;9.91;93.69;95225.91;5064738;28;20406;-75
2022/11/18 12:02:17;;;;;;;;;;;;;;;9.88;95.19;95239.50;5069843;28;19951;-74
2022/11/18 12:04:51;;;;;;;;;;;;;;;9.88;95.15;95250.78;5063258;28;19953;-74
2022/11/18 12:07:32;;;;;;;;;;;;;;;9.84;93.51;95249.66;5054620;28;20303;-74
2022/11/18 12:10:21;;;;;;;;;;;;;;;9.71;93.47;95244.78;5042743;28;19976;-74
2022/11/18 12:13:07;;;;;;;;;;;;;;;9.61;93.84;95260.34;5024982;28;19972;-74
2022/11/18 12:15:43;;;;;;;;;;;;;;;9.50;92.55;95241.88;5059421;28;19953;-74
2022/11/18 12:18:10;;;;;;;;;;;;;;;9.40;93.83;95249.59;5061566;28;19967;-74
2022/11/18 12:20:36;;;;;;;;;;;;;;;9.34;93.22;95261.00;5063272;28;19950;-74
2022/11/18 12:23:10;;;;;;;;;;;;;;;9.25;92.74;95251.97;5056031;28;19954;-75
2022/11/18 12:25:42;;;;;;;;;;;;;;;9.15;89.77;95236.91;5062303;28;19958;-73
2022/11/18 12:28:08;;;;;;;;;;;;;;;9.12;91.61;95250.47;5066748;28;20344;-74
2022/11/18 12:30:34;;;;;;;;;;;;;;;9.11;90.79;95248.88;5045686;28;19959;-74
2022/11/18 12:33:00;;;;;;;;;;;;;;;9.07;87.40;95225.06;5058887;28;20304;-74
2022/11/18 12:35:27;;;;;;;;;;;;;;;9.09;91.88;95275.28;5041654;28;19953;-74
2022/11/18 12:37:53;;;;;;;;;;;;;;;9.15;91.53;95270.91;5064831;28;19974;-75
2022/11/18 12:40:32;;;;;;;;;;;;;;;9.23;90.64;95260.06;5069583;28;19986;-74
2022/11/18 12:45:43;;;;;;;;;;;;;;;9.30;91.01;95265.13;5053265;28;19963;-74
2022/11/18 12:48:28;;;;;;;;;;;;;;;9.32;93.39;95284.81;5048524;28;19962;-74
2022/11/18 12:50:58;;;;;;;;;;;;;;;9.27;88.96;95252.53;5059837;28;19945;-74
2022/11/18 12:53:27;;;;;;;;;;;;;;;9.18;89.78;95267.84;5062664;28;19950;-74
2022/11/18 12:55:53;;;;;;;;;;;;;;;9.12;88.05;95247.88;5063714;28;20418;-74
2022/11/18 12:58:22;;;;;;;;;;;;;;;9.06;90.93;95269.72;5062430;28;19975;-74
2022/11/18 13:00:53;;;;;;;;;;;;;;;9.00;91.56;95279.31;5064002;28;19965;-75
2022/11/18 13:03:21;;;;;;;;;;;;;;;9.01;89.79;95267.03;5065903;28;19953;-74
2022/11/18 13:05:48;;;;;;;;;;;;;;;9.02;87.89;95245.88;5066674;28;19968;-75
2022/11/18 13:08:16;;;;;;;;;;;;;;;9.12;89.60;95268.78;5063137;28;20434;-75
2022/11/18 13:10:42;;;;;;;;;;;;;;;9.26;89.27;95256.16;5057797;28;20355;-75
2022/11/18 13:13:34;;;;;;;;;;;;;;;9.37;86.08;95238.81;5050792;28;19951;-74
2022/11/18 13:19:20;;;;;;;;;;;;;;;9.64;86.08;95233.69;5027495;28;19967;-74
2022/11/18 13:24:42;;;;;;;;;;;;;;;9.66;85.68;95242.91;5062867;28;19959;-74
2022/11/18 13:27:09;;;;;;;;;;;;;;;9.58;85.35;95245.94;5059580;28;19950;-75